createdAt,value
2023-03-01T02:56:44.007Z,95390.00
2023-03-01T02:57:44.076Z,95388.00
2023-03-01T02:58:44.098Z,95388.00
2023-03-01T02:59:44.197Z,95386.00
2023-03-01T03:00:44.262Z,95386.00
2023-03-01T03:01:45.445Z,95386.00
2023-03-01T03:02:44.316Z,95384.00
2023-03-01T03:03:44.447Z,95382.00
2023-03-01T03:04:44.484Z,95378.00
2023-03-01T03:05:44.523Z,95376.00
2023-03-01T03:06:44.573Z,95378.00
2023-03-01T03:07:44.631Z,95382.00
2023-03-01T03:08:44.634Z,95380.00
2023-03-01T03:09:44.735Z,95378.00
2023-03-01T03:10:44.743Z,95376.00
2023-03-01T03:11:44.810Z,95376.00
2023-03-01T03:12:44.844Z,95373.00
2023-03-01T03:13:44.900Z,95373.00
2023-03-01T03:14:44.972Z,95371.00
2023-03-01T03:15:44.968Z,95373.00
2023-03-01T03:16:45.104Z,95373.00
2023-03-01T03:17:46.323Z,95373.00
2023-03-01T03:18:45.106Z,95373.00
2023-03-01T03:19:45.176Z,95374.00
2023-03-01T03:20:45.208Z,95373.00
2023-03-01T03:21:45.273Z,95373.00
2023-03-01T03:22:45.293Z,95373.00
2023-03-01T03:23:45.337Z,95369.00
2023-03-01T03:24:45.400Z,95371.00
2023-03-01T03:25:45.458Z,95371.00
2023-03-01T03:26:45.484Z,95369.00
2023-03-01T03:27:45.516Z,95369.00
2023-03-01T03:28:45.581Z,95371.00
2023-03-01T03:29:45.601Z,95373.00
2023-03-01T03:30:45.651Z,95373.00
2023-03-01T03:31:45.722Z,95369.00
2023-03-01T03:32:45.692Z,95369.00
2023-03-01T03:33:45.768Z,95365.00
2023-03-01T03:34:45.792Z,95365.00
2023-03-01T03:35:45.874Z,95365.00
2023-03-01T03:36:45.887Z,95367.00
2023-03-01T03:37:45.912Z,95365.00
2023-03-01T03:38:45.941Z,95363.00
2023-03-01T03:39:45.996Z,95367.00
2023-03-01T03:40:45.987Z,95365.00
2023-03-01T03:41:46.013Z,95365.00
2023-03-01T03:42:46.096Z,95363.00
2023-03-01T03:43:46.155Z,95365.00
2023-03-01T03:44:46.117Z,95365.00
2023-03-01T03:45:46.236Z,95365.00
2023-03-01T03:46:46.174Z,95365.00
2023-03-01T03:47:46.244Z,95365.00
2023-03-01T03:48:46.239Z,95365.00
2023-03-01T03:49:47.069Z,95363.00
2023-03-01T03:50:46.334Z,95361.00
2023-03-01T03:51:46.344Z,95359.00
2023-03-01T03:52:46.370Z,95357.00
2023-03-01T03:53:46.440Z,95359.00
2023-03-01T03:54:46.475Z,95357.00
2023-03-01T03:55:46.469Z,95353.00
2023-03-01T03:56:46.537Z,95351.00
2023-03-01T03:57:46.561Z,95349.00
2023-03-01T03:58:46.594Z,95349.00
2023-03-01T03:59:46.609Z,95351.00
2023-03-01T04:00:46.617Z,95347.00
2023-03-01T04:01:46.680Z,95347.00
2023-03-01T04:02:46.784Z,95349.00
2023-03-01T04:03:46.708Z,95343.00
2023-03-01T04:04:46.723Z,95339.00
2023-03-01T04:05:46.740Z,95337.00
2023-03-01T04:06:46.886Z,95337.00
2023-03-01T04:07:46.799Z,95337.00
2023-03-01T04:08:46.802Z,95335.00
2023-03-01T04:09:46.875Z,95335.00
2023-03-01T04:10:46.880Z,95333.00
2023-03-01T04:11:46.892Z,95335.00
2023-03-01T04:12:46.879Z,95333.00
2023-03-01T04:13:46.946Z,95331.00
2023-03-01T04:14:48.707Z,95329.00
2023-03-01T04:15:46.985Z,95329.00
2023-03-01T04:16:46.987Z,95327.00
2023-03-01T04:17:46.998Z,95326.00
2023-03-01T04:18:47.009Z,95322.00
2023-03-01T04:19:47.039Z,95324.00
2023-03-01T04:20:47.052Z,95322.00
2023-03-01T04:21:47.102Z,95318.00
2023-03-01T04:22:47.108Z,95320.00
2023-03-01T04:23:47.134Z,95320.00
2023-03-01T04:24:47.150Z,95316.00
2023-03-01T04:25:47.194Z,95320.00
2023-03-01T04:26:47.185Z,95316.00
2023-03-01T04:27:47.229Z,95316.00
2023-03-01T04:28:47.228Z,95314.00
2023-03-01T04:29:47.256Z,95316.00
2023-03-01T04:30:47.250Z,95316.00
2023-03-01T04:31:47.345Z,95318.00
2023-03-01T04:32:47.296Z,95320.00
2023-03-01T04:33:47.340Z,95322.00
2023-03-01T04:34:47.367Z,95324.00
2023-03-01T04:35:47.443Z,95324.00
2023-03-01T04:36:47.448Z,95322.00
2023-03-01T04:37:47.393Z,95326.00
2023-03-01T04:38:47.376Z,95326.00
2023-03-01T04:39:47.378Z,95326.00
2023-03-01T04:40:47.439Z,95327.00
2023-03-01T04:41:47.422Z,95326.00
2023-03-01T04:42:47.438Z,95326.00
2023-03-01T04:43:47.519Z,95327.00
2023-03-01T04:44:47.475Z,95324.00
2023-03-01T04:45:47.557Z,95326.00
2023-03-01T04:46:47.536Z,95327.00
2023-03-01T04:47:47.545Z,95327.00
2023-03-01T04:48:47.603Z,95327.00
2023-03-01T04:49:47.592Z,95327.00
2023-03-01T04:50:47.624Z,95329.00
2023-03-01T04:51:47.620Z,95329.00
2023-03-01T04:52:47.610Z,95329.00
2023-03-01T04:53:47.643Z,95327.00
2023-03-01T04:54:47.630Z,95326.00
2023-03-01T04:55:47.623Z,95327.00
2023-03-01T04:56:47.681Z,95326.00
2023-03-01T04:57:47.681Z,95324.00
2023-03-01T04:58:47.690Z,95327.00
2023-03-01T04:59:47.698Z,95326.00
2023-03-01T05:00:47.739Z,95326.00
2023-03-01T05:01:47.737Z,95327.00
2023-03-01T05:02:47.775Z,95324.00
2023-03-01T05:03:47.829Z,95324.00
2023-03-01T05:04:47.847Z,95326.00
2023-03-01T05:05:47.772Z,95326.00
2023-03-01T05:06:47.794Z,95324.00
2023-03-01T05:07:47.788Z,95322.00
2023-03-01T05:08:47.797Z,95324.00
2023-03-01T05:09:47.842Z,95322.00
2023-03-01T05:10:47.851Z,95320.00
2023-03-01T05:11:47.872Z,95320.00
2023-03-01T05:12:47.894Z,95320.00
2023-03-01T05:13:47.930Z,95318.00
2023-03-01T05:14:47.929Z,95318.00
2023-03-01T05:15:47.948Z,95320.00
2023-03-01T05:16:47.943Z,95318.00
2023-03-01T05:17:47.973Z,95320.00
2023-03-01T05:18:48.003Z,95320.00
2023-03-01T05:19:48.096Z,95322.00
2023-03-01T05:20:48.029Z,95320.00
2023-03-01T05:21:48.045Z,95318.00
2023-03-01T05:22:48.088Z,95320.00
2023-03-01T05:23:48.078Z,95316.00
2023-03-01T05:24:48.096Z,95318.00
2023-03-01T05:25:48.103Z,95320.00
2023-03-01T05:26:48.136Z,95322.00
2023-03-01T05:27:48.188Z,95320.00
2023-03-01T05:28:48.198Z,95322.00
2023-03-01T05:29:48.247Z,95320.00
2023-03-01T05:30:48.260Z,95322.00
2023-03-01T05:31:48.292Z,95320.00
2023-03-01T06:00:48.873Z,95320.00
2023-03-01T06:01:56.137Z,95320.00
2023-03-01T06:46:57.230Z,95327.00
2023-03-01T06:52:49.012Z,95329.00
2023-03-01T06:53:49.033Z,95326.00
2023-03-01T07:03:49.356Z,95335.00
2023-03-01T08:03:50.685Z,95316.00
2023-03-01T09:04:52.690Z,95265.00
2023-03-01T09:05:52.716Z,95265.00
2023-03-01T09:06:52.805Z,95263.00
2023-03-01T09:07:52.855Z,95259.00
2023-03-01T09:08:52.899Z,95263.00
2023-03-01T09:09:52.941Z,95259.00
2023-03-01T09:10:52.983Z,95261.00
2023-03-01T09:11:53.009Z,95257.00
2023-03-01T09:12:53.044Z,95257.00
2023-03-01T09:13:53.257Z,95257.00
2023-03-01T09:14:53.097Z,95257.00
2023-03-01T09:15:53.115Z,95257.00
2023-03-01T09:16:53.225Z,95259.00
2023-03-01T09:17:53.224Z,95253.00
2023-03-01T09:18:53.255Z,95255.00
2023-03-01T09:19:53.251Z,95249.00
2023-03-01T09:20:53.304Z,95249.00
2023-03-01T09:21:53.319Z,95249.00
2023-03-01T09:22:53.371Z,95249.00
2023-03-01T09:23:53.747Z,95249.00
2023-03-01T09:24:53.400Z,95249.00
2023-03-01T09:25:53.421Z,95245.00
2023-03-01T09:26:53.437Z,95245.00
2023-03-01T09:27:53.498Z,95245.00
2023-03-01T09:28:53.765Z,95243.00
2023-03-01T09:29:53.614Z,95237.00
2023-03-01T09:30:53.647Z,95237.00
2023-03-01T09:31:53.672Z,95239.00
2023-03-01T09:32:53.678Z,95237.00
2023-03-01T09:33:53.750Z,95241.00
2023-03-01T09:34:53.812Z,95239.00
2023-03-01T09:35:53.710Z,95245.00
2023-03-01T09:36:53.672Z,95243.00
2023-03-01T09:37:54.093Z,95243.00
2023-03-01T09:38:53.906Z,95243.00
2023-03-01T09:39:53.715Z,95243.00
2023-03-01T09:40:53.718Z,95239.00
2023-03-01T09:41:53.729Z,95239.00
2023-03-01T09:43:55.997Z,95241.00
2023-03-01T10:18:56.830Z,95210.00
2023-03-01T10:24:56.325Z,95200.00
2023-03-01T10:37:56.330Z,95169.00
2023-03-01T10:38:56.398Z,95159.00
2023-03-01T10:39:56.450Z,95157.00
2023-03-01T10:40:57.418Z,95151.00
2023-03-01T10:41:56.421Z,95147.00
2023-03-01T10:42:56.434Z,95149.00
2023-03-01T10:43:56.392Z,95147.00
2023-03-01T10:44:56.801Z,95147.00
2023-03-01T10:45:56.438Z,95153.00
2023-03-01T10:46:56.380Z,95147.00
2023-03-01T10:47:56.394Z,95139.00
2023-03-01T10:48:56.360Z,95137.00
2023-03-01T10:49:56.805Z,95137.00
2023-03-01T10:50:56.378Z,95133.00
2023-03-01T10:51:56.344Z,95133.00
2023-03-01T10:52:56.421Z,95133.00
2023-03-01T10:53:56.476Z,95127.00
2023-03-01T10:54:56.503Z,95118.00
2023-03-01T10:55:56.630Z,95120.00
2023-03-01T10:56:56.613Z,95120.00
2023-03-01T10:57:56.902Z,95122.00
2023-03-01T10:58:56.693Z,95118.00
2023-03-01T10:59:56.839Z,95112.00
2023-03-01T11:00:56.768Z,95114.00
2023-03-01T11:01:56.748Z,95112.00
2023-03-01T11:02:56.738Z,95110.00
2023-03-01T11:03:56.713Z,95108.00
2023-03-01T11:04:56.836Z,95110.00
2023-03-01T11:05:56.793Z,95106.00
2023-03-01T11:06:56.775Z,95102.00
2023-03-01T11:07:56.725Z,95096.00
2023-03-01T11:08:56.806Z,95090.00
2023-03-01T11:09:56.804Z,95088.00
2023-03-01T11:10:56.855Z,95088.00
2023-03-01T11:11:56.932Z,95088.00
2023-03-01T11:12:56.972Z,95086.00
2023-03-01T11:13:57.026Z,95078.00
2023-03-01T11:14:57.103Z,95075.00
2023-03-01T11:15:57.138Z,95071.00
2023-03-01T11:16:57.137Z,95067.00
2023-03-01T11:18:05.944Z,95063.00
2023-03-01T11:18:58.161Z,95065.00
2023-03-01T11:20:02.626Z,95059.00
2023-03-01T11:20:58.164Z,95057.00
2023-03-01T11:21:57.187Z,95057.00
2023-03-01T11:22:57.142Z,95059.00
2023-03-01T11:23:57.158Z,95055.00
2023-03-01T11:26:57.137Z,95041.00
2023-03-01T11:27:57.107Z,95039.00
2023-03-01T11:28:57.096Z,95041.00
2023-03-01T11:31:07.543Z,95035.00
2023-03-01T11:43:56.993Z,95022.00
2023-03-01T11:44:57.361Z,95023.00
2023-03-01T11:45:56.993Z,95022.00
2023-03-01T11:46:57.291Z,95018.00
2023-03-01T11:47:56.997Z,95016.00
2023-03-01T11:48:57.016Z,95014.00
2023-03-01T11:49:57.051Z,95008.00
2023-03-01T11:50:57.082Z,95006.00
2023-03-01T11:51:57.052Z,95004.00
2023-03-01T11:52:57.133Z,95002.00
2023-03-01T11:53:57.179Z,95000.00
2023-03-01T11:54:57.162Z,94998.00
2023-03-01T11:55:57.379Z,94992.00
2023-03-01T11:56:57.240Z,94988.00
2023-03-01T11:57:57.207Z,94984.00
2023-03-01T11:58:57.273Z,94982.00
2023-03-01T11:59:57.328Z,94984.00
2023-03-01T12:00:57.408Z,94982.00
2023-03-01T12:01:57.451Z,94982.00
2023-03-01T12:02:57.511Z,94980.00
2023-03-01T12:03:57.464Z,94976.00
2023-03-01T12:04:57.495Z,94976.00
2023-03-01T12:05:57.853Z,94975.00
2023-03-01T12:06:57.790Z,94973.00
2023-03-01T12:07:57.503Z,94975.00
2023-03-01T12:08:57.524Z,94973.00
2023-03-01T12:09:57.540Z,94978.00
2023-03-01T12:10:57.552Z,94976.00
2023-03-01T12:11:57.610Z,94973.00
2023-03-01T12:12:57.695Z,94976.00
2023-03-01T12:13:57.719Z,94973.00
2023-03-01T12:14:57.814Z,94975.00
2023-03-01T12:15:58.348Z,94975.00
2023-03-01T12:16:57.933Z,94978.00
2023-03-01T12:17:58.004Z,94978.00
2023-03-01T12:18:57.994Z,94978.00
2023-03-01T12:19:57.999Z,94980.00
2023-03-01T12:20:58.099Z,94980.00
2023-03-01T12:21:58.117Z,94978.00
2023-03-01T12:22:59.188Z,94980.00
2023-03-01T12:23:58.128Z,94978.00
2023-03-01T12:24:58.111Z,94984.00
2023-03-01T12:25:58.873Z,94975.00
2023-03-01T12:26:58.154Z,94978.00
2023-03-01T12:27:58.099Z,94975.00
2023-03-01T12:28:58.154Z,94975.00
2023-03-01T12:29:58.117Z,94975.00
2023-03-01T12:30:58.390Z,94976.00
2023-03-01T12:31:58.233Z,94975.00
2023-03-01T12:32:58.165Z,94978.00
2023-03-01T12:33:58.067Z,94978.00
2023-03-01T12:34:58.067Z,94980.00
2023-03-01T12:35:58.393Z,94982.00
2023-03-01T12:36:58.054Z,94984.00
2023-03-01T12:37:58.082Z,94984.00
2023-03-01T12:38:58.057Z,94984.00
2023-03-01T12:39:58.070Z,94980.00
2023-03-01T12:40:58.037Z,94978.00
2023-03-01T12:41:58.029Z,94976.00
2023-03-01T12:42:58.021Z,94973.00
2023-03-01T12:43:58.006Z,94967.00
2023-03-01T12:44:58.015Z,94961.00
2023-03-01T12:45:58.393Z,94961.00
2023-03-01T12:46:57.984Z,94955.00
2023-03-01T12:47:57.995Z,94957.00
2023-03-01T12:48:57.969Z,94953.00
2023-03-01T12:49:57.956Z,94951.00
2023-03-01T12:50:58.038Z,94945.00
2023-03-01T12:51:58.746Z,94945.00
2023-03-01T12:52:57.977Z,94943.00
2023-03-01T12:53:57.965Z,94947.00
2023-03-01T12:54:57.929Z,94945.00
2023-03-01T12:55:58.348Z,94949.00
2023-03-01T12:56:57.962Z,94947.00
2023-03-01T12:57:57.913Z,94951.00
2023-03-01T12:58:58.940Z,94951.00
2023-03-01T12:59:57.902Z,94949.00
2023-03-01T13:00:57.914Z,94947.00
2023-03-01T13:01:57.931Z,94945.00
2023-03-01T13:02:57.882Z,94945.00
2023-03-01T13:03:57.908Z,94945.00
2023-03-01T13:04:57.864Z,94943.00
2023-03-01T13:05:57.905Z,94935.00
2023-03-01T13:06:57.855Z,94933.00
2023-03-01T13:07:57.869Z,94933.00
2023-03-01T13:08:57.859Z,94929.00
2023-03-01T13:09:57.819Z,94931.00
2023-03-01T13:10:57.840Z,94931.00
2023-03-01T13:11:57.800Z,94931.00
2023-03-01T13:12:57.815Z,94933.00
2023-03-01T13:13:57.796Z,94928.00
2023-03-01T13:14:57.784Z,94929.00
2023-03-01T13:15:57.869Z,94926.00
2023-03-01T13:16:57.780Z,94928.00
2023-03-01T13:17:58.367Z,94929.00
2023-03-01T13:18:57.786Z,94928.00
2023-03-01T13:19:57.751Z,94924.00
2023-03-01T13:20:57.739Z,94920.00
2023-03-01T13:21:57.758Z,94922.00
2023-03-01T13:22:57.735Z,94922.00
2023-03-01T13:23:57.753Z,94924.00
2023-03-01T13:24:57.733Z,94922.00
2023-03-01T13:25:57.844Z,94922.00
2023-03-01T13:26:57.692Z,94920.00
2023-03-01T13:27:57.718Z,94916.00
2023-03-01T13:28:57.706Z,94916.00
2023-03-01T13:29:57.702Z,94908.00
2023-03-01T13:30:57.876Z,94902.00
2023-03-01T13:31:57.728Z,94902.00
2023-03-01T13:32:57.746Z,94900.00
2023-03-01T13:33:57.696Z,94894.00
2023-03-01T13:34:57.679Z,94898.00
2023-03-01T13:35:57.865Z,94900.00
2023-03-01T13:36:57.691Z,94900.00
2023-03-01T13:37:57.706Z,94904.00
2023-03-01T13:38:57.774Z,94894.00
2023-03-01T13:39:57.724Z,94896.00
2023-03-01T13:40:57.769Z,94890.00
2023-03-01T13:41:57.732Z,94882.00
2023-03-01T13:43:05.708Z,94882.00
2023-03-01T13:43:58.771Z,94890.00
2023-03-01T13:44:57.718Z,94880.00
2023-03-01T13:45:57.793Z,94880.00
2023-03-01T13:46:57.746Z,94878.00
2023-03-01T13:47:57.744Z,94880.00
2023-03-01T13:48:57.713Z,94880.00
2023-03-01T13:49:57.751Z,94882.00
2023-03-01T13:50:57.723Z,94882.00
2023-03-01T13:51:57.697Z,94882.00
2023-03-01T13:52:57.702Z,94878.00
2023-03-01T13:53:57.746Z,94882.00
2023-03-01T13:54:57.668Z,94875.00
2023-03-01T13:55:59.577Z,94873.00
2023-03-01T13:56:57.683Z,94869.00
2023-03-01T13:57:57.640Z,94865.00
2023-03-01T13:58:57.658Z,94863.00
2023-03-01T13:59:57.758Z,94861.00
2023-03-01T14:00:57.723Z,94861.00
2023-03-01T14:01:57.770Z,94859.00
2023-03-01T14:03:05.606Z,94859.00
2023-03-01T14:03:58.700Z,94855.00
2023-03-01T14:04:57.630Z,94855.00
2023-03-01T14:06:07.793Z,94849.00
2023-03-01T14:06:58.841Z,94849.00
2023-03-01T14:07:57.862Z,94849.00
2023-03-01T14:08:57.871Z,94851.00
2023-03-01T14:09:57.855Z,94855.00
2023-03-01T14:10:57.863Z,94851.00
2023-03-01T14:11:57.888Z,94849.00
2023-03-01T14:13:03.184Z,94853.00
2023-03-01T14:13:58.914Z,94851.00
2023-03-01T14:14:57.875Z,94853.00
2023-03-01T14:15:57.905Z,94853.00
2023-03-01T14:16:57.880Z,94853.00
2023-03-01T14:17:57.877Z,94851.00
2023-03-01T14:18:57.839Z,94849.00
2023-03-01T14:19:57.846Z,94843.00
2023-03-01T14:20:57.842Z,94841.00
2023-03-01T14:21:57.877Z,94839.00
2023-03-01T14:22:57.858Z,94839.00
2023-03-01T14:23:57.807Z,94837.00
2023-03-01T14:24:57.881Z,94835.00
2023-03-01T14:25:57.792Z,94837.00
2023-03-01T14:26:57.941Z,94835.00
2023-03-01T14:27:57.793Z,94837.00
2023-03-01T14:28:57.784Z,94841.00
2023-03-01T14:29:57.772Z,94839.00
2023-03-01T14:30:57.794Z,94837.00
2023-03-01T14:31:57.964Z,94835.00
2023-03-01T14:32:57.773Z,94833.00
2023-03-01T14:33:57.783Z,94831.00
2023-03-01T14:34:57.760Z,94833.00
2023-03-01T14:35:57.812Z,94831.00
2023-03-01T14:36:57.778Z,94833.00
2023-03-01T14:37:57.754Z,94829.00
2023-03-01T14:38:57.715Z,94833.00
2023-03-01T14:39:57.713Z,94839.00
2023-03-01T14:40:57.695Z,94833.00
2023-03-01T14:42:02.606Z,94833.00
2023-03-01T14:42:58.705Z,94833.00
2023-03-01T14:43:57.729Z,94833.00
2023-03-01T14:44:57.694Z,94833.00
2023-03-01T14:45:57.739Z,94833.00
2023-03-01T14:46:57.663Z,94833.00
2023-03-01T14:47:57.675Z,94833.00
2023-03-01T14:48:57.673Z,94831.00
2023-03-01T14:49:57.687Z,94835.00
2023-03-01T14:50:57.661Z,94837.00
2023-03-01T14:51:57.630Z,94835.00
2023-03-01T14:52:58.008Z,94837.00
2023-03-01T14:53:57.652Z,94837.00
2023-03-01T14:54:57.617Z,94837.00
2023-03-01T14:55:57.655Z,94837.00
2023-03-01T14:56:57.600Z,94835.00
2023-03-01T14:57:57.613Z,94828.00
2023-03-01T14:58:57.609Z,94826.00
2023-03-01T14:59:57.570Z,94824.00
2023-03-01T15:00:57.563Z,94828.00
2023-03-01T15:01:57.610Z,94824.00
2023-03-01T15:02:57.703Z,94828.00
2023-03-01T15:03:57.746Z,94829.00
2023-03-01T15:04:57.694Z,94831.00
2023-03-01T15:05:57.615Z,94829.00
2023-03-01T15:06:57.654Z,94829.00
2023-03-01T15:07:57.691Z,94829.00
2023-03-01T15:08:57.622Z,94826.00
2023-03-01T15:09:57.644Z,94828.00
2023-03-01T15:10:57.653Z,94828.00
2023-03-01T15:11:57.650Z,94828.00
2023-03-01T15:12:57.662Z,94826.00
2023-03-01T15:13:57.671Z,94824.00
2023-03-01T15:15:03.754Z,94822.00
2023-03-01T15:15:58.685Z,94822.00
2023-03-01T15:16:57.932Z,94822.00
2023-03-01T15:17:57.631Z,94826.00
2023-03-01T15:18:57.633Z,94822.00
2023-03-01T15:19:57.625Z,94824.00
2023-03-01T15:20:57.608Z,94820.00
2023-03-01T15:21:57.597Z,94820.00
2023-03-01T15:22:57.577Z,94822.00
2023-03-01T15:23:57.663Z,94822.00
2023-03-01T15:24:57.574Z,94824.00
2023-03-01T15:25:57.677Z,94826.00
2023-03-01T15:26:57.578Z,94828.00
2023-03-01T15:27:57.551Z,94822.00
2023-03-01T15:28:57.571Z,94824.00
2023-03-01T15:29:57.710Z,94826.00
2023-03-01T15:30:57.685Z,94826.00
2023-03-01T15:31:57.620Z,94828.00
2023-03-01T15:32:57.519Z,94829.00
2023-03-01T15:33:57.505Z,94829.00
2023-03-01T15:34:57.504Z,94828.00
2023-03-01T15:35:57.521Z,94829.00
2023-03-01T15:36:57.487Z,94829.00
2023-03-01T15:37:57.463Z,94826.00
2023-03-01T15:38:58.451Z,94829.00
2023-03-01T15:39:57.492Z,94824.00
2023-03-01T15:40:57.456Z,94826.00
2023-03-01T15:41:57.467Z,94824.00
2023-03-01T15:42:57.425Z,94828.00
2023-03-01T15:43:57.441Z,94829.00
2023-03-01T15:44:58.008Z,94831.00
2023-03-01T15:45:57.430Z,94831.00
2023-03-01T15:46:57.526Z,94828.00
2023-03-01T15:47:57.402Z,94828.00
2023-03-01T15:48:57.453Z,94828.00
2023-03-01T15:49:57.445Z,94829.00
2023-03-01T15:50:57.389Z,94826.00
2023-03-01T15:51:57.403Z,94828.00
2023-03-01T15:52:57.382Z,94829.00
2023-03-01T15:53:57.389Z,94828.00
2023-03-01T15:55:57.380Z,94828.00
2023-03-01T15:56:57.343Z,94829.00
2023-03-01T15:57:57.355Z,94829.00
2023-03-01T15:58:57.334Z,94829.00
2023-03-01T15:59:57.939Z,94831.00
2023-03-01T16:01:01.329Z,94829.00
2023-03-01T16:01:57.320Z,94831.00
2023-03-01T16:02:57.403Z,94828.00
2023-03-01T16:03:57.341Z,94828.00
2023-03-01T16:04:57.543Z,94831.00
2023-03-01T16:05:57.317Z,94828.00
2023-03-01T16:06:57.298Z,94829.00
2023-03-01T16:07:57.303Z,94829.00
2023-03-01T16:08:57.305Z,94831.00
2023-03-01T16:09:57.325Z,94831.00
2023-03-01T16:10:57.267Z,94831.00
2023-03-01T16:11:57.265Z,94833.00
2023-03-01T16:12:57.224Z,94829.00
2023-03-01T16:13:57.294Z,94833.00
2023-03-01T16:14:57.242Z,94835.00
2023-03-01T16:15:57.285Z,94833.00
2023-03-01T16:16:57.197Z,94837.00
2023-03-01T16:17:57.223Z,94837.00
2023-03-01T16:18:57.284Z,94837.00
2023-03-01T16:19:57.298Z,94841.00
2023-03-01T16:20:57.185Z,94843.00
2023-03-01T16:21:57.181Z,94845.00
2023-03-01T16:22:57.189Z,94845.00
2023-03-01T16:23:57.165Z,94843.00
2023-03-01T16:24:57.180Z,94845.00
2023-03-01T16:25:57.177Z,94847.00
2023-03-01T16:26:57.155Z,94847.00
2023-03-01T16:27:57.141Z,94845.00
2023-03-01T16:28:57.212Z,94847.00
2023-03-01T16:29:57.140Z,94849.00
2023-03-01T16:30:57.138Z,94847.00
2023-03-01T16:31:57.233Z,94847.00
2023-03-01T16:32:57.191Z,94847.00
2023-03-01T16:33:57.172Z,94849.00
2023-03-01T16:34:57.209Z,94849.00
2023-03-01T16:35:57.294Z,94847.00
2023-03-01T16:36:57.242Z,94845.00
2023-03-01T16:37:57.303Z,94845.00
2023-03-01T16:38:57.304Z,94843.00
2023-03-01T16:39:57.333Z,94845.00
2023-03-01T16:40:57.385Z,94845.00
2023-03-01T16:41:57.392Z,94849.00
2023-03-01T16:42:57.441Z,94849.00
2023-03-01T16:43:57.485Z,94851.00
2023-03-01T16:44:57.515Z,94851.00
2023-03-01T16:45:57.571Z,94853.00
2023-03-01T16:46:57.572Z,94855.00
2023-03-01T16:47:57.595Z,94853.00
2023-03-01T16:48:57.663Z,94855.00
2023-03-01T16:49:57.664Z,94855.00
2023-03-01T16:50:57.741Z,94859.00
2023-03-01T16:51:57.753Z,94861.00
2023-03-01T16:52:57.769Z,94863.00
2023-03-01T16:53:57.846Z,94867.00
2023-03-01T16:54:57.873Z,94869.00
2023-03-01T16:55:57.943Z,94871.00
2023-03-01T16:56:57.944Z,94869.00
2023-03-01T16:57:57.974Z,94871.00
2023-03-01T16:58:58.056Z,94871.00
2023-03-01T16:59:58.108Z,94871.00
2023-03-01T17:00:58.186Z,94875.00
2023-03-01T17:01:58.182Z,94876.00
2023-03-01T17:02:58.247Z,94880.00
2023-03-01T17:03:58.252Z,94880.00
2023-03-01T17:04:58.302Z,94882.00
2023-03-01T17:05:58.356Z,94890.00
2023-03-01T17:06:58.404Z,94896.00
2023-03-01T17:07:58.460Z,94898.00
2023-03-01T17:08:58.478Z,94902.00
2023-03-01T17:09:58.527Z,94902.00
2023-03-01T17:10:58.591Z,94902.00
2023-03-01T17:11:58.650Z,94904.00
2023-03-01T17:12:58.698Z,94906.00
2023-03-01T17:13:58.761Z,94912.00
2023-03-01T17:14:58.820Z,94914.00
2023-03-01T17:15:58.859Z,94916.00
2023-03-01T17:16:59.300Z,94910.00
2023-03-01T17:17:58.933Z,94914.00
2023-03-01T17:18:58.932Z,94918.00
2023-03-01T17:19:59.966Z,94920.00
2023-03-01T17:20:59.011Z,94918.00
2023-03-01T17:21:59.164Z,94924.00
2023-03-01T17:22:59.134Z,94922.00
2023-03-01T17:23:59.224Z,94924.00
2023-03-01T17:24:59.297Z,94928.00
2023-03-01T17:25:59.331Z,94926.00
2023-03-01T17:26:59.357Z,94926.00
2023-03-01T17:27:59.483Z,94924.00
2023-03-01T17:28:59.482Z,94928.00
2023-03-01T17:29:59.558Z,94926.00
2023-03-01T17:30:59.629Z,94926.00
2023-03-01T17:31:59.741Z,94928.00
2023-03-01T17:32:59.756Z,94928.00
2023-03-01T17:34:01.547Z,94933.00
2023-03-01T17:34:59.868Z,94929.00
2023-03-01T17:35:59.994Z,94929.00
2023-03-01T17:36:59.967Z,94931.00
2023-03-01T17:37:59.997Z,94929.00
2023-03-01T17:39:00.104Z,94933.00
2023-03-01T17:40:00.184Z,94933.00
2023-03-01T17:41:00.194Z,94935.00
2023-03-01T17:42:00.267Z,94935.00
2023-03-01T17:43:00.309Z,94939.00
2023-03-01T17:44:00.311Z,94935.00
2023-03-01T17:45:00.401Z,94937.00
2023-03-01T17:46:00.428Z,94941.00
2023-03-01T17:47:00.464Z,94943.00
2023-03-01T17:48:00.535Z,94939.00
2023-03-01T17:49:00.595Z,94937.00
2023-03-01T17:50:00.654Z,94939.00
2023-03-01T17:51:00.696Z,94941.00
2023-03-01T17:52:00.775Z,94937.00
2023-03-01T17:53:00.811Z,94937.00
2023-03-01T17:54:00.879Z,94935.00
2023-03-01T17:55:00.934Z,94937.00
2023-03-01T17:56:00.973Z,94939.00
2023-03-01T17:57:01.045Z,94935.00
2023-03-01T17:59:01.113Z,94941.00
2023-03-01T18:00:01.192Z,94941.00
2023-03-01T18:01:01.257Z,94939.00
2023-03-01T18:02:01.317Z,94941.00
2023-03-01T18:03:01.350Z,94943.00
2023-03-01T18:04:01.402Z,94943.00
2023-03-01T18:05:01.434Z,94939.00
2023-03-01T18:06:01.480Z,94941.00
2023-03-01T18:07:01.529Z,94939.00
2023-03-01T18:08:01.598Z,94941.00
2023-03-01T18:09:01.649Z,94941.00
2023-03-01T18:10:01.686Z,94941.00
2023-03-01T18:11:01.713Z,94941.00
2023-03-01T18:12:01.754Z,94941.00
2023-03-01T18:13:01.814Z,94937.00
2023-03-01T18:14:01.841Z,94941.00
2023-03-01T18:15:01.890Z,94943.00
2023-03-01T18:16:01.932Z,94939.00
2023-03-01T18:17:02.037Z,94941.00
2023-03-01T18:18:02.025Z,94943.00
2023-03-01T18:19:02.058Z,94943.00
2023-03-01T18:20:02.029Z,94947.00
2023-03-01T18:21:02.086Z,94945.00
2023-03-01T18:22:02.093Z,94947.00
2023-03-01T18:23:02.103Z,94945.00
2023-03-01T18:24:02.174Z,94949.00
2023-03-01T18:25:02.204Z,94949.00
2023-03-01T18:26:02.224Z,94953.00
2023-03-01T18:27:02.257Z,94953.00
2023-03-01T18:28:02.267Z,94957.00
2023-03-01T18:29:02.281Z,94957.00
2023-03-01T18:30:02.319Z,94957.00
2023-03-01T18:31:02.378Z,94959.00
2023-03-01T18:32:02.503Z,94961.00
2023-03-01T18:33:02.447Z,94957.00
2023-03-01T18:34:02.454Z,94957.00
2023-03-01T18:35:02.511Z,94957.00
2023-03-01T18:36:02.536Z,94957.00
2023-03-01T18:37:10.063Z,94959.00
2023-03-01T18:38:03.551Z,94961.00
2023-03-01T18:39:02.536Z,94961.00
2023-03-01T18:40:02.537Z,94957.00
2023-03-01T18:41:02.537Z,94957.00
2023-03-01T18:42:02.482Z,94957.00
2023-03-01T18:43:02.520Z,94959.00
2023-03-01T18:44:02.510Z,94957.00
2023-03-01T18:45:02.505Z,94959.00
2023-03-01T18:46:02.660Z,94961.00
2023-03-01T18:47:02.486Z,94967.00
2023-03-01T18:48:02.492Z,94961.00
2023-03-01T18:49:02.485Z,94967.00
2023-03-01T18:50:02.466Z,94965.00
2023-03-01T18:51:02.496Z,94961.00
2023-03-01T18:52:02.434Z,94961.00
2023-03-01T18:53:02.482Z,94961.00
2023-03-01T18:54:02.444Z,94961.00
2023-03-01T18:55:02.503Z,94963.00
2023-03-01T18:56:02.562Z,94965.00
2023-03-01T18:57:02.530Z,94967.00
2023-03-01T18:58:02.590Z,94967.00
2023-03-01T18:59:02.632Z,94969.00
2023-03-01T19:00:02.616Z,94969.00
2023-03-01T19:01:02.706Z,94971.00
2023-03-01T19:02:02.859Z,94973.00
2023-03-01T19:03:02.701Z,94969.00
2023-03-01T19:04:02.711Z,94976.00
2023-03-01T19:05:02.758Z,94973.00
2023-03-01T19:06:02.759Z,94975.00
2023-03-01T19:07:02.811Z,94975.00
2023-03-01T19:08:02.819Z,94976.00
2023-03-01T19:09:02.824Z,94984.00
2023-03-01T19:10:02.878Z,94978.00
2023-03-01T19:11:02.893Z,94980.00
2023-03-01T19:12:02.922Z,94982.00
2023-03-01T19:13:02.952Z,94980.00
2023-03-01T19:14:02.952Z,94982.00
2023-03-01T19:15:02.990Z,94982.00